Mikkalo, Oregon
Current Conditions -  °F | °C
As of 10:53 PM on Friday 24 Oct 2014 (Local Time) from KDLS Reporting Station
Overcast Overcast  
Wind Chill: 52°   Ceiling: 3100
Heat Index: 52°   Visibility: 10mi
Dew Point: 50°   Wind: 0mph
Humidity: 93%   Direction: NA
Pressure: 29.86"   Gusts: NA
Location:  45.47°N, 120.24°W
Report Text: KDLS 250553Z AUTO 00000KT 10SM OVC031 11/10 A2986 RMK AO2 SLP112 60004 T01110100 10117 20111 58015
Loading
Personal Weather Stations






























Interactive Weather Map
Tropical Storm Tracking
New forecast layout! Learn more

10-Day Weather Forecast

Advertisements
Track Severe Weather on mobile